Time;durP1;ratioP1;P1;durP2;ratioP2;P2;SDS_P1;SDS_P2;PMS_P1;PMS_P2;Temp;Humidity;BMP_temperature;BMP_pressure;BME280_temperature;BME280_humidity;BME280_pressure;Samples;Min_cycle;Max_cycle;Signal;HPM_P1;HPM_P2
2022/09/23 00:02:55;;;;;;;4.95;3.40;;;;;;;10.90;92.68;100839.44;8355192;28;20072;-49
2022/09/23 00:06:56;;;;;;;6.60;3.67;;;;;;;10.92;92.77;100840.19;8355866;28;20502;-51
2022/09/23 00:10:57;;;;;;;5.45;3.17;;;;;;;10.86;93.39;100838.84;8354834;28;20124;-48
2022/09/23 00:14:57;;;;;;;4.68;3.25;;;;;;;10.88;92.98;100828.75;8355378;28;20040;-47
2022/09/23 00:18:57;;;;;;;4.70;3.13;;;;;;;10.87;93.08;100835.19;8354880;28;20037;-49
2022/09/23 00:22:58;;;;;;;6.50;3.47;;;;;;;10.84;93.31;100832.75;8354744;28;20155;-49
2022/09/23 00:26:59;;;;;;;5.33;3.50;;;;;;;10.83;93.71;100825.59;8354940;28;20117;-48
2022/09/23 00:31:04;;;;;;;5.38;3.38;;;;;;;10.74;94.35;100829.09;8352348;28;20365;-47
2022/09/23 00:35:05;;;;;;;5.10;3.42;;;;;;;10.65;95.31;100827.22;8354091;28;20539;-47
2022/09/23 00:39:06;;;;;;;3.95;3.15;;;;;;;10.62;95.41;100822.09;8354619;28;20521;-47
2022/09/23 00:43:11;;;;;;;6.93;4.35;;;;;;;10.62;95.62;100816.69;8354263;28;20593;-51
2022/09/23 00:51:45;;;;;;;6.97;4.03;;;;;;;10.55;96.12;100818.19;8286651;28;20800;-47
2022/09/23 00:55:50;;;;;;;7.70;3.40;;;;;;;10.53;96.13;100812.06;8273493;28;20042;-46
2022/09/23 00:59:50;;;;;;;5.28;2.97;;;;;;;10.52;96.35;100813.03;8284224;28;20550;-46
2022/09/23 01:03:53;;;;;;;3.63;2.90;;;;;;;10.53;96.08;100814.78;8282966;28;20451;-47
2022/09/23 01:07:56;;;;;;;5.47;3.33;;;;;;;10.54;96.36;100811.06;8284313;28;20038;-47
2022/09/23 01:12:36;;;;;;;7.10;3.33;;;;;;;10.48;96.73;100803.50;8314230;28;20053;-46
2022/09/23 01:16:46;;;;;;;6.47;3.78;;;;;;;10.40;97.60;100797.88;8316270;28;20038;-46
2022/09/23 01:21:27;;;;;;;4.43;2.95;;;;;;;10.35;98.02;100802.84;8313538;28;20045;-46
2022/09/23 01:26:07;;;;;;;5.47;3.05;;;;;;;10.34;98.18;100795.72;8313155;28;20415;-47
2022/09/23 01:35:10;;;;;;;8.93;3.15;;;;;;;10.32;98.10;100795.00;8291898;28;20403;-46
2022/09/23 01:39:21;;;;;;;5.93;3.92;;;;;;;10.32;97.99;100786.03;8282749;28;20503;-46
2022/09/23 01:43:33;;;;;;;5.03;3.00;;;;;;;10.23;98.67;100782.28;8282809;28;20044;-46
2022/09/23 01:47:41;;;;;;;8.20;3.58;;;;;;;10.18;99.35;100787.22;8284202;28;20056;-47
2022/09/23 01:51:47;;;;;;;10.07;4.13;;;;;;;10.10;100.00;100781.63;8281401;28;20170;-46
2022/09/23 01:55:56;;;;;;;5.57;3.50;;;;;;;10.08;100.00;100783.59;8273267;28;20411;-47
2022/09/23 02:00:07;;;;;;;10.15;3.22;;;;;;;10.01;100.00;100782.38;8284424;28;20511;-47
2022/09/23 02:04:14;;;;;;;4.40;3.25;;;;;;;9.96;100.00;100773.81;8283890;28;20494;-47
2022/09/23 02:08:21;;;;;;;6.13;3.72;;;;;;;9.91;100.00;100784.13;8284841;28;20449;-48
2022/09/23 02:12:25;;;;;;;5.30;3.72;;;;;;;9.90;100.00;100782.41;8283414;28;20030;-48
2022/09/23 02:16:33;;;;;;;7.18;4.13;;;;;;;9.88;100.00;100773.59;8283857;28;20168;-49
2022/09/23 02:20:38;;;;;;;5.35;3.30;;;;;;;9.85;100.00;100776.53;8283254;28;20029;-48
2022/09/23 02:24:39;;;;;;;6.03;3.63;;;;;;;9.82;100.00;100769.56;8283373;28;20034;-49
2022/09/23 02:29:06;;;;;;;4.82;3.58;;;;;;;9.84;100.00;100764.03;8283068;28;20088;-49
2022/09/23 02:33:16;;;;;;;7.20;3.70;;;;;;;9.79;100.00;100760.88;8282453;28;20100;-49
2022/09/23 02:37:28;;;;;;;8.40;3.90;;;;;;;9.75;100.00;100759.41;8282937;28;20058;-48
2022/09/23 02:41:41;;;;;;;9.90;3.75;;;;;;;9.72;100.00;100754.28;8282405;28;20042;-48
2022/09/23 02:45:41;;;;;;;6.15;4.10;;;;;;;9.74;100.00;100757.72;8262045;28;20038;-47
2022/09/23 02:49:42;;;;;;;14.38;4.03;;;;;;;9.74;100.00;100757.72;8261256;28;20041;-47
2022/09/23 02:53:44;;;;;;;7.35;3.88;;;;;;;9.68;100.00;100747.44;8260538;28;20043;-48
2022/09/23 02:57:45;;;;;;;5.85;3.70;;;;;;;9.68;100.00;100742.91;8260829;28;20188;-47
2022/09/23 03:02:26;;;;;;;6.85;3.92;;;;;;;9.65;100.00;100739.59;8260065;28;20450;-48
2022/09/23 03:06:36;;;;;;;4.07;3.38;;;;;;;9.64;100.00;100740.59;8260381;28;20039;-48
2022/09/23 03:14:57;;;;;;;4.38;3.85;;;;;;;9.61;100.00;100724.66;8390511;27;20465;-48
2022/09/23 03:19:24;;;;;;;7.93;3.88;;;;;;;9.59;100.00;100732.88;8383394;28;20486;-46
2022/09/23 03:23:32;;;;;;;5.30;3.80;;;;;;;9.56;100.00;100734.97;8382343;28;20028;-49
2022/09/23 03:27:35;;;;;;;4.80;4.07;;;;;;;9.51;100.00;100729.09;8381524;28;20037;-48
2022/09/23 03:31:38;;;;;;;4.15;3.58;;;;;;;9.50;100.00;100721.97;8382256;28;20564;-46
2022/09/23 03:36:52;;;;;;;7.57;3.83;;;;;;;9.43;100.00;100724.31;8382798;28;20033;-46
2022/09/23 03:40:24;;;;;;;4.90;3.75;;;;;;;9.41;100.00;100718.22;8382088;28;20056;-47
2022/09/23 03:44:28;;;;;;;4.72;4.20;;;;;;;9.39;100.00;100719.31;8380902;28;20371;-46
2022/09/23 03:48:28;;;;;;;4.95;4.43;;;;;;;9.34;100.00;100716.16;8381231;28;20043;-46
2022/09/23 03:52:28;;;;;;;5.25;4.07;;;;;;;9.29;100.00;100730.03;8382091;28;20063;-46
2022/09/23 03:56:29;;;;;;;5.57;3.72;;;;;;;9.26;100.00;100714.09;8382021;28;20490;-48
2022/09/23 04:00:29;;;;;;;6.57;4.65;;;;;;;9.22;100.00;100709.09;8379534;28;20044;-46
2022/09/23 04:04:32;;;;;;;7.73;4.00;;;;;;;9.20;100.00;100711.03;8397769;28;20043;-46
2022/09/23 04:08:33;;;;;;;7.25;4.30;;;;;;;9.18;100.00;100702.25;8387375;28;20318;-47
2022/09/23 04:12:33;;;;;;;7.05;3.95;;;;;;;9.15;100.00;100697.09;8404154;28;20047;-47
2022/09/23 04:16:34;;;;;;;8.45;4.80;;;;;;;9.11;100.00;100692.94;8414466;28;20036;-46
2022/09/23 04:20:34;;;;;;;10.48;4.70;;;;;;;9.07;100.00;100694.16;8413761;28;20046;-46
2022/09/23 04:24:34;;;;;;;7.30;4.85;;;;;;;9.02;100.00;100693.69;8397494;28;20128;-46
2022/09/23 04:28:35;;;;;;;9.23;4.80;;;;;;;8.99;100.00;100699.31;8378821;28;20155;-47
2022/09/23 04:32:35;;;;;;;11.90;4.90;;;;;;;8.99;100.00;100688.53;8389376;28;20071;-46
2022/09/23 04:36:36;;;;;;;13.25;4.57;;;;;;;8.97;100.00;100693.22;8389542;28;20505;-46
2022/09/23 04:40:37;;;;;;;7.55;3.85;;;;;;;8.91;100.00;100691.88;8391491;28;20033;-45
2022/09/23 04:44:37;;;;;;;7.15;3.92;;;;;;;8.88;100.00;100683.19;8391547;28;20070;-46
2022/09/23 04:48:40;;;;;;;8.05;4.38;;;;;;;8.85;100.00;100672.66;8391100;28;20062;-46
2022/09/23 04:52:40;;;;;;;4.57;3.47;;;;;;;8.81;100.00;100679.31;8390919;28;20033;-45
2022/09/23 04:56:41;;;;;;;6.15;3.90;;;;;;;8.83;100.00;100669.22;8386642;28;20040;-45
2022/09/23 05:00:43;;;;;;;6.82;3.70;;;;;;;8.85;100.00;100659.19;8385263;28;20588;-48
2022/09/23 05:04:43;;;;;;;4.88;3.40;;;;;;;8.79;100.00;100667.78;8387039;28;20048;-45
2022/09/23 05:08:48;;;;;;;8.23;3.70;;;;;;;8.79;100.00;100678.56;8387796;28;20123;-47
2022/09/23 05:12:48;;;;;;;11.52;4.65;;;;;;;8.78;100.00;100663.38;8388935;28;20493;-46
2022/09/23 05:16:49;;;;;;;4.95;3.75;;;;;;;8.75;100.00;100669.00;8388524;28;20405;-47
2022/09/23 05:20:54;;;;;;;5.22;3.75;;;;;;;8.75;100.00;100669.84;8387830;28;20504;-46
2022/09/23 05:24:54;;;;;;;9.90;3.67;;;;;;;8.79;100.00;100671.34;8385136;28;20036;-46
2022/09/23 05:28:55;;;;;;;6.07;3.28;;;;;;;8.82;100.00;100675.59;8382640;28;20059;-46
2022/09/23 05:32:56;;;;;;;5.53;3.08;;;;;;;8.85;100.00;100669.97;8384863;28;20494;-48
2022/09/23 05:36:57;;;;;;;4.55;3.25;;;;;;;8.85;100.00;100672.66;8387336;28;20453;-48
2022/09/23 05:40:59;;;;;;;4.80;3.67;;;;;;;8.97;100.00;100680.56;8379234;28;20441;-48
2022/09/23 05:45:00;;;;;;;10.82;3.90;;;;;;;8.93;100.00;100684.53;8385337;28;20036;-47
2022/09/23 05:49:01;;;;;;;7.90;3.20;;;;;;;8.92;100.00;100681.94;8388825;28;20036;-46
2022/09/23 05:53:01;;;;;;;4.25;3.50;;;;;;;8.92;100.00;100681.94;8388291;28;20045;-47
2022/09/23 05:57:02;;;;;;;6.25;3.38;;;;;;;8.96;100.00;100683.41;8381133;28;20505;-46
2022/09/23 06:01:20;;;;;;;7.60;3.97;;;;;;;9.05;100.00;100682.66;8386929;28;20056;-46
2022/09/23 06:05:20;;;;;;;7.53;4.05;;;;;;;9.17;100.00;100693.28;8383098;28;20778;-50
2022/09/23 06:09:21;;;;;;;5.55;4.05;;;;;;;9.29;100.00;100696.78;8388307;28;20109;-49
2022/09/23 06:13:21;;;;;;;7.85;3.45;;;;;;;9.34;100.00;100689.19;8386968;28;20532;-47
2022/09/23 06:17:21;;;;;;;4.38;3.80;;;;;;;9.43;100.00;100688.41;8387194;28;20086;-49
2022/09/23 06:21:22;;;;;;;6.50;3.80;;;;;;;9.53;100.00;100683.94;8387995;28;20085;-49
2022/09/23 06:25:22;;;;;;;5.80;3.70;;;;;;;9.57;100.00;100679.97;8386968;28;20286;-48
2022/09/23 06:29:23;;;;;;;5.80;3.90;;;;;;;9.68;100.00;100666.44;8388759;28;20028;-47
2022/09/23 06:33:24;;;;;;;6.88;3.97;;;;;;;9.90;100.00;100671.69;8387728;28;20486;-50
2022/09/23 06:37:24;;;;;;;9.13;3.92;;;;;;;10.09;100.00;100677.25;8386971;28;20683;-49
2022/09/23 06:41:25;;;;;;;5.87;3.83;;;;;;;10.34;100.00;100678.66;8387647;28;20420;-47
2022/09/23 06:45:26;;;;;;;6.22;3.45;;;;;;;10.44;99.95;100677.72;8386558;28;20279;-47
2022/09/23 06:49:27;;;;;;;8.27;3.90;;;;;;;10.84;99.54;100686.69;8388020;28;20043;-46
2022/09/23 06:53:30;;;;;;;6.67;3.37;;;;;;;11.38;96.65;100687.03;8374175;28;20048;-47
2022/09/23 06:57:31;;;;;;;6.80;3.07;;;;;;;11.78;95.14;100690.50;8384761;28;20313;-47
2022/09/23 07:01:33;;;;;;;9.85;3.35;;;;;;;11.99;94.56;100681.34;8387159;28;20029;-48
2022/09/23 07:05:34;;;;;;;10.02;3.55;;;;;;;12.26;91.52;100673.28;8387620;28;20032;-47
2022/09/23 07:09:35;;;;;;;7.07;3.63;;;;;;;12.60;91.87;100688.00;8387455;28;20430;-50
2022/09/23 07:13:35;;;;;;;8.13;3.58;;;;;;;12.78;90.99;100678.06;8378115;28;22573;-47
2022/09/23 07:17:36;;;;;;;6.85;3.15;;;;;;;12.97;88.27;100677.97;8383633;28;20119;-47
2022/09/23 07:21:36;;;;;;;8.45;3.45;;;;;;;13.01;89.54;100687.53;8387252;28;20025;-47
2022/09/23 07:25:37;;;;;;;7.07;3.33;;;;;;;13.13;87.74;100687.19;8383883;28;20489;-47
2022/09/23 07:29:37;;;;;;;6.53;3.25;;;;;;;13.28;88.01;100682.06;8387737;28;20033;-47
2022/09/23 07:33:42;;;;;;;10.90;3.87;;;;;;;13.41;88.84;100687.97;8387105;28;20040;-49
2022/09/23 07:37:43;;;;;;;7.85;4.15;;;;;;;13.47;88.85;100681.91;8387407;28;20350;-49
2022/09/23 07:41:44;;;;;;;17.85;3.95;;;;;;;13.59;87.51;100684.25;8385259;28;20125;-47
2022/09/23 07:45:45;;;;;;;7.32;3.67;;;;;;;13.95;87.28;100679.63;8386252;28;20033;-47
2022/09/23 07:49:46;;;;;;;9.02;3.05;;;;;;;14.00;85.88;100688.16;8381676;28;20028;-47
2022/09/23 07:53:48;;;;;;;5.07;3.10;;;;;;;13.88;85.41;100692.16;8385366;28;20044;-46
2022/09/23 07:57:48;;;;;;;6.93;3.80;;;;;;;13.93;84.99;100687.09;8384974;28;20494;-47
2022/09/23 08:01:52;;;;;;;5.25;3.35;;;;;;;14.04;85.40;100700.44;8390588;28;20446;-47
2022/09/23 08:05:53;;;;;;;9.93;3.97;;;;;;;14.29;83.33;100699.63;8393197;28;20029;-46
2022/09/23 08:09:53;;;;;;;5.35;3.08;;;;;;;14.35;83.01;100693.53;8392891;28;20037;-47
2022/09/23 08:13:54;;;;;;;6.97;3.58;;;;;;;14.48;82.64;100693.09;8392250;28;20093;-47
2022/09/23 08:17:58;;;;;;;5.35;2.78;;;;;;;14.53;81.55;100686.19;8392501;28;20040;-48
2022/09/23 08:21:58;;;;;;;6.55;3.05;;;;;;;14.86;81.01;100677.16;8391943;28;20480;-47
2022/09/23 08:26:01;;;;;;;5.78;3.90;;;;;;;15.04;80.66;100679.75;8391674;28;20052;-49
2022/09/23 08:30:02;;;;;;;8.23;3.05;;;;;;;15.16;79.82;100676.56;8381491;28;20869;-48
2022/09/23 08:34:02;;;;;;;5.40;3.20;;;;;;;15.45;78.57;100668.84;8388015;28;20113;-47
2022/09/23 08:38:03;;;;;;;4.35;2.83;;;;;;;15.50;78.12;100668.34;8391113;28;20044;-47
2022/09/23 08:42:13;;;;;;;3.78;2.70;;;;;;;15.81;77.55;100673.97;8386115;28;20037;-49
2022/09/23 08:46:23;;;;;;;7.95;3.17;;;;;;;16.11;77.08;100681.44;8389521;28;20029;-49
2022/09/23 08:50:29;;;;;;;5.00;2.47;;;;;;;16.12;76.14;100683.16;8352211;28;20554;-51
2022/09/23 08:54:30;;;;;;;6.45;3.00;;;;;;;16.27;76.53;100675.97;8357649;28;20037;-48
2022/09/23 09:03:25;;;;;;;5.20;3.05;;;;;;;16.82;74.65;100671.41;8279969;27;20930;-47
2022/09/23 09:07:32;;;;;;;5.97;2.60;;;;;;;16.97;73.06;100675.09;8294776;28;20046;-47
2022/09/23 09:11:37;;;;;;;6.03;2.60;;;;;;;16.98;72.61;100666.72;8301375;28;20389;-46
2022/09/23 09:15:55;;;;;;;3.60;2.08;;;;;;;17.79;69.29;100661.63;8286000;28;20049;-46
2022/09/23 09:20:06;;;;;;;4.65;2.50;;;;;;;18.92;67.25;100656.69;8308123;28;20129;-47
2022/09/23 09:24:20;;;;;;;4.95;2.03;;;;;;;20.22;63.16;100667.44;8290927;28;20049;-47
2022/09/23 09:28:31;;;;;;;6.10;2.33;;;;;;;21.51;58.73;100654.59;8307455;28;20060;-47
2022/09/23 09:32:46;;;;;;;4.60;1.98;;;;;;;20.90;59.04;100650.97;8295187;28;20048;-46
2022/09/23 09:37:14;;;;;;;3.20;1.90;;;;;;;21.28;59.70;100649.44;8308826;28;20511;-46
2022/09/23 09:41:16;;;;;;;9.25;2.30;;;;;;;20.94;60.46;100641.25;8302776;28;20447;-47
2022/09/23 09:45:30;;;;;;;4.53;2.47;;;;;;;19.94;62.79;100644.56;8279903;28;20121;-47
2022/09/23 09:49:40;;;;;;;3.53;1.98;;;;;;;20.77;62.35;100646.22;8311262;28;20125;-47
2022/09/23 09:53:40;;;;;;;3.10;2.00;;;;;;;21.63;59.15;100640.03;8280861;28;20129;-49
2022/09/23 09:57:47;;;;;;;3.42;1.75;;;;;;;22.53;56.37;100630.13;8298313;28;20042;-46
2022/09/23 10:01:48;;;;;;;5.45;2.40;;;;;;;22.65;55.89;100641.34;8282084;28;20060;-48
2022/09/23 10:05:51;;;;;;;6.43;1.90;;;;;;;22.40;57.73;100630.13;8311249;28;20038;-47
2022/09/23 10:09:51;;;;;;;4.47;1.90;;;;;;;21.75;57.97;100632.91;8312547;28;20095;-48
2022/09/23 10:14:04;;;;;;;2.72;1.52;;;;;;;20.81;60.38;100631.06;8283527;28;20038;-48
2022/09/23 10:18:18;;;;;;;10.45;2.40;;;;;;;20.35;60.93;100640.06;8268524;28;20030;-48
2022/09/23 10:22:21;;;;;;;;;;;;;;;20.80;61.24;100639.50;8271108;28;20038;-51
2022/09/23 10:26:31;;;;;;;5.63;1.80;;;;;;;20.80;59.39;100623.00;8281525;28;19977;-48
2022/09/23 10:30:32;;;;;;;6.00;2.25;;;;;;;20.88;59.79;100623.69;8290021;28;20113;-48
2022/09/23 10:34:33;;;;;;;3.97;1.98;;;;;;;21.74;57.49;100625.66;8290130;28;20048;-48
2022/09/23 10:38:34;;;;;;;3.50;1.77;;;;;;;22.35;54.42;100621.63;8288201;28;20048;-48
2022/09/23 10:46:37;;;;;;;4.25;1.38;;;;;;;23.05;55.20;100616.19;8289485;28;20034;-48
2022/09/23 10:47:38;;;;;;;3.50;1.80;;;;;;;23.29;54.20;100613.78;8278614;28;20042;-48
2022/09/23 10:52:18;;;;;;;2.58;1.55;;;;;;;22.68;52.22;100608.69;8260151;28;20170;-48
2022/09/23 10:56:45;;;;;;;4.82;1.30;;;;;;;21.87;54.15;100609.19;8264653;28;20408;-48
2022/09/23 11:01:05;;;;;;;3.20;1.35;;;;;;;21.89;54.99;100614.47;8259664;28;20054;-48
2022/09/23 11:05:45;;;;;;;4.18;1.63;;;;;;;21.17;55.89;100603.31;8257997;28;20038;-50
2022/09/23 11:10:15;;;;;;;4.85;1.80;;;;;;;20.89;55.92;100610.78;8284647;28;20829;-50
2022/09/23 11:19:14;;;;;;;3.80;1.73;;;;;;;21.66;55.55;100598.34;8318524;27;20384;-52
2022/09/23 11:23:44;;;;;;;5.25;1.92;;;;;;;21.79;55.02;100597.53;8313994;28;20061;-47
2022/09/23 11:28:16;;;;;;;5.50;2.30;;;;;;;21.18;56.41;100594.00;8347791;28;20035;-47
2022/09/23 11:32:44;;;;;;;8.63;1.70;;;;;;;22.73;54.90;100586.84;8282761;28;20044;-47
2022/09/23 11:36:51;;;;;;;2.72;1.60;;;;;;;22.74;54.87;100582.13;8341364;28;20044;-50
2022/09/23 11:41:01;;;;;;;2.92;1.95;;;;;;;22.08;57.01;100584.16;8347657;28;20495;-50
2022/09/23 11:45:13;;;;;;;6.20;2.05;;;;;;;22.48;54.58;100566.50;8348190;28;20132;-47
2022/09/23 11:49:39;;;;;;;2.55;1.65;;;;;;;23.01;53.12;100572.69;8347004;28;20037;-49
2022/09/23 11:53:48;;;;;;;6.82;2.13;;;;;;;22.89;53.96;100560.66;8339442;28;20489;-50
2022/09/23 11:58:03;;;;;;;4.93;1.92;;;;;;;21.55;54.95;100557.69;8343701;28;20051;-49
2022/09/23 12:02:15;;;;;;;2.67;1.35;;;;;;;21.94;55.44;100563.22;8341411;28;20239;-51
2022/09/23 12:06:21;;;;;;;2.63;1.55;;;;;;;21.85;55.58;100553.50;8332632;28;20033;-47
2022/09/23 12:10:37;;;;;;;5.47;1.73;;;;;;;22.49;55.10;100557.19;8344564;28;20064;-49
2022/09/23 12:20:02;;;;;;;5.40;1.40;;;;;;;22.07;54.09;100549.44;8347625;28;20392;-47
2022/09/23 12:24:36;;;;;;;4.20;2.03;;;;;;;21.82;54.97;100547.53;8343400;28;20041;-47
2022/09/23 12:28:41;;;;;;;4.32;1.83;;;;;;;21.83;54.42;100550.09;8327943;28;20522;-48
2022/09/23 12:32:42;;;;;;;3.70;1.48;;;;;;;21.62;55.15;100542.00;8346675;28;20105;-47
2022/09/23 12:36:43;;;;;;;2.00;1.52;;;;;;;21.82;55.71;100542.91;8347721;28;20045;-48
2022/09/23 12:40:44;;;;;;;6.45;1.75;;;;;;;21.93;56.73;100534.00;8344484;28;20095;-49
2022/09/23 12:44:47;;;;;;;4.72;1.67;;;;;;;21.98;54.57;100536.94;8346058;28;20040;-48
2022/09/23 12:53:36;;;;;;;5.88;1.63;;;;;;;21.75;54.01;100527.44;8381261;27;20906;-50
2022/09/23 12:57:40;;;;;;;6.55;1.20;;;;;;;21.19;55.05;100535.19;8373760;28;20132;-48
2022/09/23 13:01:41;;;;;;;3.93;1.20;;;;;;;21.10;55.49;100525.44;8376687;28;20047;-49
2022/09/23 13:06:47;;;;;;;5.00;1.27;;;;;;;21.03;55.69;100530.06;8377626;27;20055;-48
2022/09/23 13:10:17;;;;;;;4.70;1.10;;;;;;;20.98;55.46;100532.63;8376839;28;20090;-50
2022/09/23 13:14:21;;;;;;;4.68;1.25;;;;;;;20.59;58.54;100533.25;8382852;28;20047;-48
2022/09/23 13:18:23;;;;;;;6.53;1.08;;;;;;;20.46;57.76;100521.41;8393109;27;20059;-48
2022/09/23 13:22:51;;;;;;;7.43;1.30;;;;;;;20.34;57.60;100515.63;8397833;27;20051;-49
2022/09/23 13:26:56;;;;;;;8.65;1.38;;;;;;;20.26;56.58;100524.03;8402714;27;20040;-49
2022/09/23 13:30:57;;;;;;;2.97;1.30;;;;;;;20.08;55.19;100512.69;8409224;27;20037;-49
2022/09/23 13:35:02;;;;;;;12.45;1.48;;;;;;;20.21;57.09;100523.78;8389384;27;20506;-49
2022/09/23 13:39:21;;;;;;;6.55;0.98;;;;;;;20.07;57.08;100515.66;8410641;27;20048;-48
2022/09/23 13:43:27;;;;;;;10.10;1.50;;;;;;;20.09;57.37;100508.03;8389255;27;20043;-49
2022/09/23 13:47:29;;;;;;;8.98;1.63;;;;;;;20.03;56.45;100514.38;8392904;27;20048;-51
2022/09/23 13:51:33;;;;;;;3.80;1.38;;;;;;;19.90;56.36;100514.25;8378562;28;20044;-52
2022/09/23 13:55:37;;;;;;;4.40;1.25;;;;;;;19.88;56.34;100511.72;8381749;28;20049;-49
2022/09/23 13:59:41;;;;;;;8.52;1.27;;;;;;;20.00;57.53;100501.03;8392651;28;20044;-48
2022/09/23 14:03:43;;;;;;;3.47;1.08;;;;;;;20.02;56.51;100501.66;8379114;28;20435;-49
2022/09/23 14:07:43;;;;;;;6.57;1.33;;;;;;;20.00;56.81;100490.06;8379053;28;20032;-48
2022/09/23 14:11:44;;;;;;;4.63;1.50;;;;;;;20.09;57.22;100486.94;8368937;28;20064;-48
2022/09/23 14:15:46;;;;;;;5.47;1.27;;;;;;;20.07;60.83;100472.56;8370016;28;20520;-49
2022/09/23 14:19:48;;;;;;;6.13;1.63;;;;;;;20.02;60.43;100485.19;8367859;28;20075;-51
2022/09/23 14:23:48;;;;;;;9.23;1.35;;;;;;;19.96;57.51;100469.53;8363777;28;20044;-48
2022/09/23 14:27:50;;;;;;;6.60;1.17;;;;;;;19.98;59.63;100472.94;8367056;28;20057;-48
2022/09/23 14:31:55;;;;;;;4.63;1.40;;;;;;;19.96;57.60;100469.53;8385945;28;20040;-52
2022/09/23 14:36:05;;;;;;;4.22;1.48;;;;;;;19.92;58.10;100468.25;8371414;28;20037;-51
2022/09/23 14:40:16;;;;;;;6.30;1.63;;;;;;;19.78;56.91;100469.22;8382515;28;20048;-48
2022/09/23 14:44:22;;;;;;;7.50;1.65;;;;;;;19.71;57.82;100471.06;8366008;28;20044;-48
2022/09/23 14:48:26;;;;;;;4.13;1.38;;;;;;;19.77;60.92;100456.56;8358012;28;20056;-50
2022/09/23 14:52:26;;;;;;;3.80;1.67;;;;;;;19.72;62.51;100456.28;8378642;28;20040;-48
2022/09/23 14:56:40;;;;;;;7.25;2.03;;;;;;;19.67;61.87;100447.84;8365217;28;20215;-50
2022/09/23 15:00:54;;;;;;;7.10;1.40;;;;;;;19.59;60.74;100447.97;8359896;28;20441;-49
2022/09/23 15:05:07;;;;;;;13.43;1.93;;;;;;;19.62;60.70;100455.81;8363610;28;20278;-49
2022/09/23 15:09:18;;;;;;;6.97;1.43;;;;;;;19.51;62.65;100442.66;8355114;28;20118;-48
2022/09/23 15:13:25;;;;;;;6.93;1.83;;;;;;;19.52;61.92;100436.13;8333544;28;20264;-48
2022/09/23 15:17:33;;;;;;;6.90;1.92;;;;;;;19.45;65.96;100442.41;8343686;28;20048;-49
2022/09/23 15:21:39;;;;;;;9.60;1.75;;;;;;;19.43;62.66;100444.50;8351841;28;20051;-52
2022/09/23 15:25:40;;;;;;;11.68;1.85;;;;;;;19.46;63.24;100446.00;8324837;28;20037;-50
2022/09/23 15:29:40;;;;;;;13.40;2.03;;;;;;;19.45;64.37;100442.41;8324428;28;20098;-49
2022/09/23 15:33:46;;;;;;;7.87;1.37;;;;;;;19.38;61.53;100441.50;8339214;28;20044;-50
2022/09/23 15:37:48;;;;;;;4.80;1.27;;;;;;;19.28;63.26;100445.66;8323776;28;20261;-49
2022/09/23 15:41:49;;;;;;;21.40;3.03;;;;;;;19.15;64.35;100440.84;8331223;28;20044;-49
2022/09/23 15:45:55;;;;;;;13.27;2.13;;;;;;;19.09;63.40;100447.13;8328917;28;20084;-49
2022/09/23 15:49:56;;;;;;;4.30;1.02;;;;;;;19.06;62.43;100439.28;8331728;28;20025;-52
2022/09/23 15:53:57;;;;;;;5.40;1.60;;;;;;;18.92;63.20;100442.97;8327873;28;20510;-52
2022/09/23 15:57:58;;;;;;;9.05;1.65;;;;;;;18.83;63.62;100444.16;8326670;28;20500;-51
2022/09/23 16:02:04;;;;;;;6.85;1.92;;;;;;;18.85;63.37;100433.81;8349714;28;20037;-49
2022/09/23 16:06:05;;;;;;;3.67;1.42;;;;;;;18.85;65.36;100431.06;8346090;28;20040;-49
2022/09/23 16:10:05;;;;;;;6.43;1.35;;;;;;;18.92;63.59;100437.50;8325208;28;20301;-48
2022/09/23 16:14:11;;;;;;;2.53;1.15;;;;;;;18.88;64.59;100438.09;8320383;28;20077;-50
2022/09/23 16:18:12;;;;;;;4.18;0.98;;;;;;;18.89;63.97;100440.63;8319762;28;20053;-51
2022/09/23 16:22:14;;;;;;;3.50;1.08;;;;;;;18.72;65.75;100447.38;8328995;28;20032;-49
2022/09/23 16:26:18;;;;;;;4.22;1.42;;;;;;;18.63;65.67;100443.06;8353828;28;20071;-52
2022/09/23 16:30:18;;;;;;;3.47;1.60;;;;;;;18.57;65.36;100438.38;8375156;28;20036;-50
2022/09/23 16:34:19;;;;;;;5.00;1.87;;;;;;;18.49;66.69;100433.03;8382949;28;20040;-51
2022/09/23 16:38:20;;;;;;;3.63;1.70;;;;;;;18.40;66.24;100436.94;8382926;28;20781;-52
2022/09/23 16:42:21;;;;;;;8.48;3.15;;;;;;;18.34;66.83;100431.34;8382181;28;20040;-51
2022/09/23 16:46:22;;;;;;;5.07;3.03;;;;;;;18.26;66.68;100435.03;8377253;28;20052;-55
2022/09/23 16:50:23;;;;;;;6.18;2.45;;;;;;;18.18;67.22;100437.91;8352156;28;20037;-52
2022/09/23 16:54:23;;;;;;;6.13;2.70;;;;;;;18.16;66.07;100445.44;8354315;28;20044;-54
2022/09/23 16:58:24;;;;;;;6.45;2.70;;;;;;;17.99;68.05;100438.47;8363973;28;20033;-55
2022/09/23 17:03:40;;;;;;;7.40;2.90;;;;;;;17.88;69.21;100436.22;8379686;28;20056;-51
2022/09/23 17:06:48;;;;;;;6.38;2.10;;;;;;;17.51;72.74;100428.09;8362450;28;20033;-51
2022/09/23 17:10:57;;;;;;;2.65;1.38;;;;;;;17.33;73.34;100425.66;8331368;28;20029;-54
2022/09/23 17:14:59;;;;;;;6.97;1.65;;;;;;;17.12;74.25;100432.91;8336246;28;20043;-52
2022/09/23 17:19:06;;;;;;;8.30;1.65;;;;;;;17.12;74.29;100438.38;8347280;28;20379;-54
2022/09/23 17:23:07;;;;;;;4.75;2.30;;;;;;;16.98;76.62;100425.50;8349636;28;20033;-53
2022/09/23 17:27:07;;;;;;;10.43;2.92;;;;;;;16.68;78.43;100419.09;8350371;28;20064;-54
2022/09/23 17:31:07;;;;;;;5.10;2.47;;;;;;;16.97;75.87;100423.81;8348671;28;20037;-52
2022/09/23 17:35:09;;;;;;;9.18;3.05;;;;;;;16.98;76.57;100420.91;8331041;28;20430;-54
2022/09/23 17:39:09;;;;;;;11.20;3.00;;;;;;;16.70;76.73;100417.03;8333673;28;20040;-54
2022/09/23 17:43:10;;;;;;;6.75;3.08;;;;;;;16.68;77.48;100412.81;8328710;28;20033;-54
2022/09/23 17:47:10;;;;;;;6.20;2.10;;;;;;;16.60;80.30;100407.38;8340348;28;20407;-55
2022/09/23 17:51:16;;;;;;;4.57;2.20;;;;;;;16.16;84.28;100411.75;8335170;28;20384;-55
2022/09/23 17:55:16;;;;;;;4.45;2.08;;;;;;;16.11;83.44;100408.69;8324810;28;20110;-53
2022/09/23 17:59:17;;;;;;;3.03;2.25;;;;;;;15.84;87.42;100406.44;8327456;28;20065;-53
2022/09/23 18:03:17;;;;;;;3.72;1.30;;;;;;;15.58;88.12;100407.56;8328330;28;20106;-54
2022/09/23 18:07:18;;;;;;;3.33;1.25;;;;;;;15.78;81.69;100408.00;8340951;28;20324;-52
2022/09/23 18:11:21;;;;;;;4.13;1.30;;;;;;;15.85;79.93;100408.16;8344687;28;20045;-51
2022/09/23 18:15:22;;;;;;;6.65;2.58;;;;;;;16.09;81.05;100405.28;8343834;28;20076;-55
2022/09/23 18:19:23;;;;;;;7.72;2.80;;;;;;;16.11;80.65;100408.69;8331188;28;20503;-51
2022/09/23 18:23:23;;;;;;;7.45;3.22;;;;;;;16.07;82.18;100418.28;8348550;28;20049;-54
2022/09/23 18:27:24;;;;;;;7.10;3.58;;;;;;;16.14;80.51;100416.53;8335645;28;20046;-54
2022/09/23 18:31:25;;;;;;;6.82;3.45;;;;;;;15.77;85.06;100416.34;8329387;28;20608;-51
2022/09/23 18:35:25;;;;;;;11.32;3.00;;;;;;;15.79;86.66;100426.03;8344834;28;20097;-54
2022/09/23 18:39:27;;;;;;;5.28;1.90;;;;;;;15.77;87.19;100427.25;8336549;28;20206;-54
2022/09/23 18:43:30;;;;;;;7.03;2.00;;;;;;;15.35;89.94;100431.09;8338133;28;20269;-52
2022/09/23 18:51:54;;;;;;;5.60;2.38;;;;;;;15.47;86.92;100432.44;8345100;28;20045;-54
2022/09/23 18:55:54;;;;;;;3.38;2.80;;;;;;;15.60;87.78;100438.22;8331875;28;20041;-53
2022/09/23 18:59:55;;;;;;;5.93;3.00;;;;;;;15.55;89.30;100429.72;8333858;28;20108;-51
2022/09/23 19:03:57;;;;;;;3.65;1.80;;;;;;;15.45;88.44;100425.47;8320288;28;20283;-51
2022/09/23 19:07:57;;;;;;;6.93;2.22;;;;;;;15.41;89.29;100426.84;8322426;28;20041;-50
2022/09/23 19:11:57;;;;;;;6.73;2.53;;;;;;;15.18;91.08;100426.69;8344353;28;20150;-50
2022/09/23 19:16:04;;;;;;;5.97;3.03;;;;;;;15.29;89.23;100430.94;8347330;28;20299;-53
2022/09/23 19:20:05;;;;;;;4.97;2.55;;;;;;;15.11;91.90;100420.22;8341958;28;20601;-51
2022/09/23 19:24:06;;;;;;;2.15;1.88;;;;;;;15.12;93.94;100427.38;8344233;28;20034;-51
2022/09/23 19:28:07;;;;;;;6.05;3.58;;;;;;;15.13;92.72;100429.06;8345495;28;20120;-53
2022/09/23 19:32:07;;;;;;;3.78;2.78;;;;;;;14.85;95.01;100427.72;8337371;28;20049;-51
2022/09/23 19:36:09;;;;;;;5.60;2.72;;;;;;;15.20;92.11;100421.06;8330036;28;20370;-51
2022/09/23 19:40:10;;;;;;;9.30;3.10;;;;;;;14.96;91.49;100415.63;8346204;28;20036;-54